createdAt,value
2019-05-06T00:00:13.841Z,95164.09
2019-05-06T00:05:10.878Z,95174.15
2019-05-06T00:10:21.535Z,95171.86
2019-05-06T00:15:18.478Z,95181.45
2019-05-06T00:20:16.788Z,95179.78
2019-05-06T00:25:18.569Z,95183.57
2019-05-06T00:30:15.749Z,95181.41
2019-05-06T00:35:14.189Z,95183.15
2019-05-06T00:40:14.082Z,95185.16
2019-05-06T00:45:11.271Z,95176.00
2019-05-06T00:50:08.583Z,95185.70
2019-05-06T00:55:05.863Z,95195.02
2019-05-06T01:00:05.048Z,95192.05
2019-05-06T01:05:04.378Z,95192.47
2019-05-06T01:10:00.859Z,95194.47
2019-05-06T01:14:59.382Z,95187.20
2019-05-06T01:19:56.531Z,95188.95
2019-05-06T01:24:55.862Z,95178.91
2019-05-06T01:29:54.868Z,95176.25
2019-05-06T01:34:53.722Z,95181.91
2019-05-06T01:40:09.247Z,95187.65
2019-05-06T01:45:07.085Z,95173.05
2019-05-06T01:50:05.848Z,95171.96
2019-05-06T01:55:05.383Z,95162.77
2019-05-06T02:00:05.430Z,95150.27
2019-05-06T02:05:04.756Z,95143.95
2019-05-06T02:10:04.037Z,95148.95
2019-05-06T02:15:01.147Z,95149.67
2019-05-06T02:19:58.199Z,95131.83
2019-05-06T02:24:59.877Z,95135.27
2019-05-06T02:30:05.120Z,95132.68
2019-05-06T02:35:09.347Z,95140.20
2019-05-06T02:40:25.617Z,95144.08
2019-05-06T02:45:24.013Z,95159.64
2019-05-06T02:50:26.816Z,95155.13
2019-05-06T02:55:23.803Z,95164.95
2019-05-06T03:00:23.648Z,95164.70
2019-05-06T03:05:19.954Z,95163.64
2019-05-06T03:10:17.034Z,95153.70
2019-05-06T03:15:16.822Z,95153.09
2019-05-06T03:20:46.484Z,95152.64
2019-05-06T03:25:45.220Z,95145.93
2019-05-06T03:30:45.792Z,95145.77
2019-05-06T03:35:52.066Z,95151.34
2019-05-06T03:40:45.055Z,95142.89
2019-05-06T03:45:42.900Z,95141.66
2019-05-06T03:50:40.247Z,95143.22
2019-05-06T03:55:37.635Z,95137.28
2019-05-06T04:00:35.240Z,95150.58
2019-05-06T04:05:33.719Z,95142.62
2019-05-06T04:10:36.489Z,95129.03
2019-05-06T04:15:48.903Z,95137.28
2019-05-06T04:21:08.645Z,95147.71
2019-05-06T04:26:18.098Z,95148.16
2019-05-06T04:31:16.680Z,95142.77
2019-05-06T04:36:14.121Z,95144.52
2019-05-06T04:41:13.663Z,95144.36
2019-05-06T04:46:10.269Z,95151.60
2019-05-06T04:51:07.682Z,95151.16
2019-05-06T04:56:05.541Z,95158.75
2019-05-06T05:01:04.098Z,95149.66
2019-05-06T05:06:05.049Z,95152.61
2019-05-06T05:11:04.333Z,95140.80
2019-05-06T05:16:02.294Z,95155.19
2019-05-06T05:20:59.467Z,95150.83
2019-05-06T05:25:56.465Z,95151.80
2019-05-06T05:30:53.530Z,95144.16
2019-05-06T05:35:52.534Z,95153.48
2019-05-06T05:40:49.855Z,95150.58
2019-05-06T05:45:47.168Z,95153.41
2019-05-06T05:50:44.539Z,95155.16
2019-05-06T05:55:42.402Z,95162.55
2019-05-06T06:00:43.577Z,95159.86
2019-05-06T06:05:42.777Z,95157.38
2019-05-06T06:10:55.534Z,95160.30
2019-05-06T06:16:13.013Z,95157.91
2019-05-06T06:21:21.989Z,95158.27
2019-05-06T06:26:16.576Z,95156.97
2019-05-06T06:31:16.571Z,95142.59
2019-05-06T06:36:17.888Z,95148.09
2019-05-06T06:41:15.065Z,95144.33
2019-05-06T06:46:12.662Z,95147.75
2019-05-06T06:51:09.793Z,95149.45
2019-05-06T06:56:22.399Z,95157.95
2019-05-06T07:01:23.547Z,95161.00
2019-05-06T07:06:24.931Z,95156.85
2019-05-06T07:11:22.557Z,95150.61
2019-05-06T07:16:24.755Z,95161.89
2019-05-06T07:21:26.306Z,95167.25
2019-05-06T07:26:25.262Z,95172.91
2019-05-06T07:31:26.360Z,95180.91
2019-05-06T07:36:25.518Z,95167.85
2019-05-06T07:41:24.493Z,95168.17
2019-05-06T07:46:25.325Z,95165.88
2019-05-06T07:51:23.875Z,95171.55
2019-05-06T07:56:22.470Z,95180.39
2019-05-06T08:01:21.577Z,95178.33
2019-05-06T08:06:18.692Z,95185.07
2019-05-06T08:11:22.294Z,95183.06
2019-05-06T08:16:19.593Z,95188.19
2019-05-06T08:21:18.482Z,95189.45
2019-05-06T08:26:17.695Z,95188.27
2019-05-06T08:31:16.228Z,95192.45
2019-05-06T08:36:15.190Z,95203.55
2019-05-06T08:41:12.906Z,95200.33
2019-05-06T08:46:12.559Z,95161.06
2019-05-06T08:51:12.694Z,95190.30
2019-05-06T08:56:12.674Z,95195.48
2019-05-06T09:01:12.504Z,95197.98
2019-05-06T09:06:26.048Z,95187.83
2019-05-06T09:11:12.215Z,95192.36
2019-05-06T09:16:12.804Z,95186.66
2019-05-06T09:21:24.674Z,95186.22
2019-05-06T09:26:42.949Z,95190.85
2019-05-06T09:31:47.035Z,95196.97
2019-05-06T09:36:54.959Z,95198.53
2019-05-06T09:41:58.041Z,95201.53
2019-05-06T09:47:02.416Z,95207.72
2019-05-06T09:52:12.773Z,95210.14
2019-05-06T09:57:27.707Z,95194.90
2019-05-06T10:02:32.492Z,95198.91
2019-05-06T10:07:28.213Z,95200.88
2019-05-06T10:12:25.286Z,95201.03
2019-05-06T10:17:22.465Z,95203.64
2019-05-06T10:22:23.290Z,95200.49
2019-05-06T10:27:26.796Z,95209.30
2019-05-06T10:32:23.629Z,95221.55
2019-05-06T10:37:35.528Z,95105.95
2019-05-06T10:42:46.625Z,95206.92
2019-05-06T10:47:44.770Z,95207.80
2019-05-06T10:53:04.787Z,95207.59
2019-05-06T11:13:15.843Z,95218.10
2019-05-06T11:18:16.833Z,95216.19
2019-05-06T11:23:14.476Z,95214.75
2019-05-06T11:28:30.022Z,95226.03
2019-05-06T11:33:42.662Z,95222.36
2019-05-06T11:38:39.720Z,95225.39
2019-05-06T11:43:37.131Z,95230.09
2019-05-06T11:48:38.515Z,95219.84
2019-05-06T11:53:35.900Z,95229.56
2019-05-06T11:58:42.922Z,95226.37
2019-05-06T12:03:40.228Z,95237.73
2019-05-06T12:08:40.355Z,95235.22
2019-05-06T12:13:38.267Z,95227.14
2019-05-06T12:18:35.334Z,95228.27
2019-05-06T12:23:35.290Z,95225.34
2019-05-06T12:28:32.683Z,95229.05
2019-05-06T12:33:35.814Z,95230.90
2019-05-06T12:38:34.692Z,95226.69
2019-05-06T12:43:33.677Z,95227.41
2019-05-06T12:48:34.735Z,95228.23
2019-05-06T12:53:42.791Z,95247.00
2019-05-06T12:58:45.364Z,95231.11
2019-05-06T13:03:43.275Z,95232.88
2019-05-06T13:08:53.895Z,95232.72
2019-05-06T13:13:56.809Z,95245.02
2019-05-06T13:18:47.303Z,95238.38
2019-05-06T13:23:44.831Z,95245.50
2019-05-06T13:28:48.373Z,95265.20
2019-05-06T13:33:56.334Z,95269.20
2019-05-06T13:39:09.472Z,95277.81
2019-05-06T13:43:56.917Z,95280.10
2019-05-06T13:49:02.611Z,95281.92
2019-05-06T13:54:05.017Z,95287.52
2019-05-06T13:59:05.375Z,95298.44
2019-05-06T14:04:05.212Z,95302.67
2019-05-06T14:09:27.173Z,95307.16
2019-05-06T14:14:06.964Z,95304.53
2019-05-06T14:19:07.063Z,95315.48
2019-05-06T14:24:04.107Z,95307.28
2019-05-06T14:29:12.805Z,95312.89
2019-05-06T14:34:12.012Z,95321.22
2019-05-06T14:39:17.107Z,95318.61
2019-05-06T14:44:16.123Z,95313.84
2019-05-06T14:49:18.258Z,95319.05
2019-05-06T14:54:18.782Z,95337.91
2019-05-06T14:59:16.329Z,95332.09
2019-05-06T15:04:15.669Z,95355.25
2019-05-06T15:09:14.885Z,95356.66
2019-05-06T15:14:13.077Z,95356.66
2019-05-06T15:19:12.937Z,95356.98
2019-05-06T15:24:14.197Z,95358.90
2019-05-06T15:29:12.740Z,95355.31
2019-05-06T15:34:13.641Z,95363.19
2019-05-06T15:39:13.099Z,95365.23
2019-05-06T15:44:09.778Z,95366.96
2019-05-06T15:49:06.992Z,95364.98
2019-05-06T15:54:05.444Z,95374.19
2019-05-06T15:59:03.327Z,95373.05
2019-05-06T16:04:00.435Z,95377.75
2019-05-06T16:09:03.470Z,95379.50
2019-05-06T16:14:02.887Z,95385.66
2019-05-06T16:19:03.818Z,95385.55
2019-05-06T16:24:03.161Z,95388.63
2019-05-06T16:29:03.037Z,95378.12
2019-05-06T16:34:03.137Z,95394.67
2019-05-06T16:39:00.364Z,95400.88
2019-05-06T16:43:57.534Z,95397.69
2019-05-06T16:48:56.535Z,95396.25
2019-05-06T16:53:53.806Z,95406.78
2019-05-06T16:58:55.781Z,95405.95
2019-05-06T17:03:54.981Z,95396.77
2019-05-06T17:08:52.842Z,95399.56
2019-05-06T17:13:52.371Z,95400.89
2019-05-06T17:18:49.462Z,95401.95
2019-05-06T17:23:52.202Z,95391.95
2019-05-06T17:29:08.654Z,95402.50
2019-05-06T17:34:12.757Z,95400.60
2019-05-06T17:39:10.631Z,95392.55
2019-05-06T17:44:09.044Z,95393.47
2019-05-06T17:49:13.811Z,95386.70
2019-05-06T17:54:12.592Z,95396.66
2019-05-06T17:59:09.771Z,95402.91
2019-05-06T18:04:06.986Z,95409.30
2019-05-06T18:09:06.788Z,95412.19
2019-05-06T18:14:05.984Z,95415.97
2019-05-06T18:19:03.359Z,95409.17
2019-05-06T18:24:02.962Z,95415.13
2019-05-06T18:29:03.109Z,95425.37
2019-05-06T18:34:00.202Z,95416.61
2019-05-06T18:38:57.334Z,95418.94
2019-05-06T18:43:54.402Z,95413.91
2019-05-06T18:48:52.447Z,95416.77
2019-05-06T18:53:52.179Z,95428.73
2019-05-06T18:58:52.934Z,95439.46
2019-05-06T19:04:05.829Z,95437.98
2019-05-06T19:09:06.597Z,95443.65
2019-05-06T19:14:03.663Z,95448.56
2019-05-06T19:19:05.486Z,95446.08
2019-05-06T19:24:04.830Z,95463.53
2019-05-06T19:29:04.610Z,95456.73
2019-05-06T19:34:03.226Z,95463.03
2019-05-06T19:39:05.372Z,95457.11
2019-05-06T19:44:02.410Z,95464.00
2019-05-06T19:49:01.398Z,95465.57
2019-05-06T19:53:58.472Z,95464.59
2019-05-06T19:58:57.600Z,95461.44
2019-05-06T20:03:55.021Z,95459.55
2019-05-06T20:08:55.032Z,95460.00
2019-05-06T20:13:52.577Z,95457.61
2019-05-06T20:18:52.613Z,95442.31
2019-05-06T20:23:52.592Z,95447.02
2019-05-06T20:28:49.841Z,95453.93
2019-05-06T20:33:46.930Z,95450.66
2019-05-06T20:38:44.484Z,95466.56
2019-05-06T20:43:42.327Z,95456.73
2019-05-06T20:48:42.026Z,95458.97
2019-05-06T20:53:38.561Z,95459.81
2019-05-06T20:58:35.722Z,95459.81
2019-05-06T21:03:32.884Z,95448.00
2019-05-06T21:08:30.157Z,95454.01
2019-05-06T21:13:32.980Z,95452.02
2019-05-06T21:18:27.622Z,95446.41
2019-05-06T21:23:24.662Z,95454.59
2019-05-06T21:28:23.757Z,95456.16
2019-05-06T21:33:22.145Z,95455.34
2019-05-06T21:38:19.435Z,95444.08
2019-05-06T21:43:16.378Z,95440.92
2019-05-06T21:48:14.638Z,95429.38
2019-05-06T21:53:14.390Z,95432.75
2019-05-06T21:58:12.482Z,95435.16
2019-05-06T22:03:09.449Z,95431.76
2019-05-06T22:08:06.608Z,95425.22
2019-05-06T22:13:03.735Z,95424.44
2019-05-06T22:18:02.573Z,95417.07
2019-05-06T22:22:59.806Z,95411.33
2019-05-06T22:27:56.997Z,95408.55
2019-05-06T22:32:53.998Z,95403.59
2019-05-06T22:37:52.985Z,95390.70
2019-05-06T22:42:52.610Z,95392.36
2019-05-06T22:47:49.123Z,95383.23
2019-05-06T22:52:48.573Z,95382.63
2019-05-06T22:57:45.721Z,95375.71
2019-05-06T23:02:44.543Z,95372.46
2019-05-06T23:07:42.303Z,95369.05
2019-05-06T23:12:39.400Z,95360.78
2019-05-06T23:17:37.912Z,95359.77
2019-05-06T23:22:36.794Z,95349.03
2019-05-06T23:27:33.867Z,95346.17
2019-05-06T23:32:32.627Z,95364.03
2019-05-06T23:37:29.142Z,95361.30
2019-05-06T23:43:22.276Z,95365.91
2019-05-06T23:49:17.133Z,95364.44
2019-05-06T23:55:12.843Z,95368.34
